createdAt,value
2018-03-07T00:00:09.377Z,7.10
2018-03-07T00:02:37.108Z,7.08
2018-03-07T00:05:04.833Z,7.04
2018-03-07T00:07:32.443Z,6.96
2018-03-07T00:10:00.061Z,6.76
2018-03-07T00:12:27.694Z,6.67
2018-03-07T00:14:55.266Z,6.64
2018-03-07T00:17:22.832Z,6.64
2018-03-07T00:19:50.441Z,6.63
2018-03-07T00:22:18.025Z,6.63
2018-03-07T00:24:45.608Z,6.64
2018-03-07T00:27:13.234Z,6.63
2018-03-07T00:29:40.835Z,6.62
2018-03-07T00:32:08.468Z,6.59
2018-03-07T00:34:36.064Z,6.59
2018-03-07T00:37:03.651Z,6.58
2018-03-07T00:39:31.273Z,6.57
2018-03-07T00:41:58.822Z,6.56
2018-03-07T00:44:26.692Z,6.54
2018-03-07T00:46:54.330Z,6.53
2018-03-07T00:49:21.911Z,6.51
2018-03-07T00:51:49.532Z,6.48
2018-03-07T00:54:17.153Z,6.46
2018-03-07T00:56:44.740Z,6.45
2018-03-07T00:59:12.294Z,6.45
2018-03-07T01:01:39.906Z,6.45
2018-03-07T01:04:07.551Z,6.43
2018-03-07T01:06:35.111Z,6.43
2018-03-07T01:09:02.997Z,6.42
2018-03-07T01:11:30.824Z,6.41
2018-03-07T01:13:58.381Z,6.41
2018-03-07T01:16:25.994Z,6.40
2018-03-07T01:18:53.601Z,6.38
2018-03-07T01:21:21.241Z,6.37
2018-03-07T01:23:48.838Z,6.37
2018-03-07T01:26:16.439Z,6.33
2018-03-07T01:28:44.046Z,6.32
2018-03-07T01:31:11.681Z,6.29
2018-03-07T01:33:39.294Z,6.27
2018-03-07T01:36:06.935Z,6.23
2018-03-07T01:38:34.513Z,6.20
2018-03-07T01:41:02.109Z,6.18
2018-03-07T01:43:29.731Z,6.12
2018-03-07T01:45:57.337Z,6.07
2018-03-07T01:48:24.923Z,6.00
2018-03-07T01:50:52.562Z,5.96
2018-03-07T01:53:20.394Z,5.94
2018-03-07T01:55:54.274Z,5.93
2018-03-07T01:58:21.892Z,5.90
2018-03-07T02:00:49.469Z,5.89
2018-03-07T02:03:17.103Z,5.87
2018-03-07T02:05:46.654Z,5.86
2018-03-07T02:08:14.509Z,5.84
2018-03-07T02:10:42.081Z,5.83
2018-03-07T02:13:09.695Z,5.82
2018-03-07T02:15:37.811Z,5.82
2018-03-07T02:18:05.403Z,5.83
2018-03-07T02:20:32.991Z,5.82
2018-03-07T02:23:00.602Z,5.82
2018-03-07T02:25:28.170Z,5.82
2018-03-07T02:27:55.746Z,5.80
2018-03-07T02:30:23.363Z,5.79
2018-03-07T02:32:51.037Z,5.78
2018-03-07T02:35:18.601Z,5.79
2018-03-07T02:37:46.261Z,5.79
2018-03-07T02:40:13.846Z,5.78
2018-03-07T02:42:41.400Z,5.78
2018-03-07T02:45:09.054Z,5.77
2018-03-07T02:47:36.650Z,5.76
2018-03-07T02:50:04.291Z,5.77
2018-03-07T02:52:31.880Z,5.77
2018-03-07T02:54:59.493Z,5.78
2018-03-07T02:57:27.088Z,5.78
2018-03-07T02:59:54.675Z,5.77
2018-03-07T03:02:22.319Z,5.79
2018-03-07T03:04:50.195Z,5.78
2018-03-07T03:07:17.783Z,5.77
2018-03-07T03:09:45.398Z,5.76
2018-03-07T03:12:13.204Z,5.76
2018-03-07T03:14:40.781Z,5.76
2018-03-07T03:17:08.428Z,5.76
2018-03-07T03:19:36.015Z,5.75
2018-03-07T03:22:03.715Z,5.75
2018-03-07T03:24:31.306Z,5.74
2018-03-07T03:26:58.897Z,5.73
2018-03-07T03:29:26.508Z,5.72
2018-03-07T03:31:54.162Z,5.71
2018-03-07T03:34:21.735Z,5.70
2018-03-07T03:36:49.416Z,5.68
2018-03-07T03:39:17.008Z,5.68
2018-03-07T03:41:44.596Z,5.66
2018-03-07T03:44:12.229Z,5.61
2018-03-07T03:46:39.862Z,5.57
2018-03-07T03:49:07.463Z,5.54
2018-03-07T03:51:35.035Z,5.51
2018-03-07T03:54:02.709Z,5.46
2018-03-07T03:56:30.289Z,5.43
2018-03-07T03:58:57.909Z,5.37
2018-03-07T04:01:25.469Z,5.33
2018-03-07T04:03:53.061Z,5.29
2018-03-07T04:06:20.824Z,5.23
2018-03-07T04:08:48.407Z,5.18
2018-03-07T04:11:16.188Z,5.13
2018-03-07T04:13:43.805Z,5.09
2018-03-07T04:16:11.398Z,5.05
2018-03-07T04:18:38.993Z,5.03
2018-03-07T04:21:06.634Z,5.02
2018-03-07T04:23:34.231Z,5.01
2018-03-07T04:26:01.870Z,4.99
2018-03-07T04:28:29.449Z,4.96
2018-03-07T04:30:57.004Z,4.94
2018-03-07T04:33:24.648Z,4.92
2018-03-07T04:35:52.230Z,4.88
2018-03-07T04:38:19.838Z,4.84
2018-03-07T04:40:47.471Z,4.81
2018-03-07T04:43:15.469Z,4.78
2018-03-07T04:45:43.057Z,4.75
2018-03-07T04:48:10.718Z,4.72
2018-03-07T04:50:38.277Z,4.69
2018-03-07T04:53:06.218Z,4.67
2018-03-07T04:55:33.878Z,4.66
2018-03-07T04:58:01.448Z,4.64
2018-03-07T05:00:29.091Z,4.61
2018-03-07T05:02:56.678Z,4.59
2018-03-07T05:05:24.234Z,4.57
2018-03-07T05:07:52.197Z,4.57
2018-03-07T05:10:19.833Z,4.55
2018-03-07T05:12:47.416Z,4.54
2018-03-07T05:15:15.384Z,4.54
2018-03-07T05:17:42.962Z,4.54
2018-03-07T05:20:10.614Z,4.54
2018-03-07T05:22:38.208Z,4.54
2018-03-07T05:25:05.800Z,4.53
2018-03-07T05:27:33.404Z,4.52
2018-03-07T05:30:01.011Z,4.52
2018-03-07T05:32:28.599Z,4.50
2018-03-07T05:34:56.285Z,4.47
2018-03-07T05:37:23.900Z,4.47
2018-03-07T05:39:51.569Z,4.44
2018-03-07T05:42:19.137Z,4.44
2018-03-07T05:44:46.860Z,4.43
2018-03-07T05:47:14.650Z,4.42
2018-03-07T05:49:42.360Z,4.41
2018-03-07T05:52:10.006Z,4.34
2018-03-07T05:54:37.630Z,4.29
2018-03-07T05:57:05.242Z,4.29
2018-03-07T05:59:32.847Z,4.30
2018-03-07T06:02:00.465Z,4.29
2018-03-07T06:04:28.203Z,4.27
2018-03-07T06:06:55.978Z,4.25
2018-03-07T06:09:23.636Z,4.24
2018-03-07T06:11:51.277Z,4.23
2018-03-07T06:14:18.982Z,4.19
2018-03-07T06:16:46.667Z,4.16
2018-03-07T06:19:14.373Z,4.13
2018-03-07T06:21:42.036Z,4.08
2018-03-07T06:24:09.668Z,4.05
2018-03-07T06:26:37.248Z,4.05
2018-03-07T06:29:05.040Z,4.04
2018-03-07T06:31:32.653Z,4.04
2018-03-07T06:34:00.581Z,4.03
2018-03-07T06:36:28.219Z,4.00
2018-03-07T06:38:56.003Z,3.96
2018-03-07T06:41:23.817Z,3.95
2018-03-07T06:43:51.476Z,3.94
2018-03-07T06:46:19.141Z,3.94
2018-03-07T06:48:46.786Z,3.94
2018-03-07T06:51:14.402Z,3.93
2018-03-07T06:53:42.211Z,3.94
2018-03-07T06:56:10.054Z,3.93
2018-03-07T06:58:38.037Z,3.91
2018-03-07T07:01:05.992Z,3.91
2018-03-07T07:03:33.563Z,3.92
2018-03-07T07:06:01.135Z,3.94
2018-03-07T07:08:28.747Z,3.97
2018-03-07T07:10:56.368Z,3.98
2018-03-07T07:13:23.952Z,3.96
2018-03-07T07:15:51.519Z,3.94
2018-03-07T07:18:19.119Z,3.93
2018-03-07T07:20:46.700Z,3.92
2018-03-07T07:23:14.408Z,3.93
2018-03-07T07:25:42.005Z,3.93
2018-03-07T07:28:09.588Z,3.90
2018-03-07T07:30:37.236Z,3.85
2018-03-07T07:33:04.948Z,3.84
2018-03-07T07:35:32.525Z,3.85
2018-03-07T07:38:00.166Z,3.85
2018-03-07T07:40:27.771Z,3.84
2018-03-07T07:42:55.344Z,3.79
2018-03-07T07:45:22.984Z,3.76
2018-03-07T07:47:50.561Z,3.75
2018-03-07T07:50:18.150Z,3.74
2018-03-07T07:52:45.798Z,3.72
2018-03-07T07:55:13.380Z,3.71
2018-03-07T07:57:40.955Z,3.69
2018-03-07T08:00:08.606Z,3.69
2018-03-07T08:02:36.160Z,3.63
2018-03-07T08:05:03.730Z,3.60
2018-03-07T08:07:31.374Z,3.52
2018-03-07T08:09:59.261Z,3.48
2018-03-07T08:12:26.883Z,3.44
2018-03-07T08:14:54.553Z,3.46
2018-03-07T08:17:22.117Z,3.50
2018-03-07T08:19:49.714Z,3.52
2018-03-07T08:22:17.345Z,3.52
2018-03-07T08:24:44.920Z,3.54
2018-03-07T08:27:12.536Z,3.56
2018-03-07T08:29:40.093Z,3.60
2018-03-07T08:32:07.652Z,3.60
2018-03-07T08:34:35.289Z,3.63
2018-03-07T08:37:02.861Z,3.72
2018-03-07T08:39:30.442Z,3.80
2018-03-07T08:41:58.405Z,3.89
2018-03-07T08:44:25.966Z,3.93
2018-03-07T08:46:53.544Z,3.99
2018-03-07T08:49:21.124Z,4.04
2018-03-07T08:51:48.736Z,4.10
2018-03-07T08:54:16.396Z,4.15
2018-03-07T08:56:44.013Z,4.22
2018-03-07T08:59:11.944Z,4.26
2018-03-07T09:01:39.558Z,4.32
2018-03-07T09:04:07.147Z,4.38
2018-03-07T09:06:34.743Z,4.43
2018-03-07T09:09:02.388Z,4.50
2018-03-07T09:11:30.194Z,4.60
2018-03-07T09:13:57.827Z,4.68
2018-03-07T09:16:25.448Z,4.73
2018-03-07T09:18:53.029Z,4.80
2018-03-07T09:21:20.608Z,4.88
2018-03-07T09:23:48.266Z,4.97
2018-03-07T09:26:15.838Z,5.06
2018-03-07T09:28:43.435Z,5.14
2018-03-07T09:31:11.050Z,5.26
2018-03-07T09:33:38.633Z,5.39
2018-03-07T09:36:06.217Z,5.49
2018-03-07T09:38:33.824Z,5.53
2018-03-07T09:41:01.424Z,5.62
2018-03-07T09:43:29.012Z,5.66
2018-03-07T09:45:56.718Z,5.74
2018-03-07T09:48:24.343Z,5.80
2018-03-07T09:50:52.133Z,5.89
2018-03-07T09:53:19.799Z,6.00
2018-03-07T09:55:47.445Z,6.09
2018-03-07T09:58:15.264Z,6.21
2018-03-07T10:00:43.298Z,6.35
2018-03-07T10:03:10.856Z,6.50
2018-03-07T10:05:38.438Z,6.66
2018-03-07T10:08:06.046Z,6.81
2018-03-07T10:10:33.621Z,6.97
2018-03-07T10:13:01.280Z,7.14
2018-03-07T10:15:28.905Z,7.28
2018-03-07T10:17:56.477Z,7.44
2018-03-07T10:20:24.123Z,7.62
2018-03-07T10:22:51.771Z,7.81
2018-03-07T10:25:19.605Z,8.06
2018-03-07T10:27:47.263Z,8.36
2018-03-07T10:30:14.851Z,8.62
2018-03-07T10:32:42.703Z,8.90
2018-03-07T10:35:10.366Z,9.19
2018-03-07T10:37:37.967Z,9.45
2018-03-07T10:40:05.586Z,9.70
2018-03-07T10:42:33.187Z,9.99
2018-03-07T10:45:00.821Z,10.28
2018-03-07T10:47:28.389Z,10.56
2018-03-07T10:49:55.974Z,10.86
2018-03-07T10:52:23.610Z,11.09
2018-03-07T10:54:51.200Z,11.26
2018-03-07T10:57:19.022Z,11.33
2018-03-07T10:59:46.982Z,11.49
2018-03-07T11:02:14.641Z,11.73
2018-03-07T11:04:42.316Z,11.91
2018-03-07T11:07:10.138Z,12.20
2018-03-07T11:09:37.702Z,12.49
2018-03-07T11:12:05.350Z,12.70
2018-03-07T11:14:32.965Z,12.86
2018-03-07T11:17:00.556Z,13.02
2018-03-07T11:19:28.205Z,13.23
2018-03-07T11:21:55.834Z,13.39
2018-03-07T11:24:23.426Z,13.59
2018-03-07T11:26:51.020Z,13.73
2018-03-07T11:29:18.680Z,13.73
2018-03-07T11:31:46.269Z,13.71
2018-03-07T11:34:13.906Z,13.92
2018-03-07T11:36:41.512Z,14.08
2018-03-07T11:39:09.483Z,14.25
2018-03-07T11:41:37.066Z,14.47
2018-03-07T11:44:05.019Z,14.70
2018-03-07T11:46:32.634Z,14.82
2018-03-07T11:49:00.370Z,14.95
2018-03-07T11:51:39.496Z,15.05
2018-03-07T11:54:07.063Z,15.15
2018-03-07T11:56:34.653Z,15.33
2018-03-07T11:59:02.303Z,15.10
2018-03-07T12:01:29.922Z,15.10
2018-03-07T12:03:57.516Z,15.28
2018-03-07T12:06:25.157Z,15.46
2018-03-07T12:08:52.747Z,15.47
2018-03-07T12:11:20.345Z,15.33
2018-03-07T12:13:47.975Z,15.27
2018-03-07T12:16:15.592Z,15.17
2018-03-07T12:18:43.156Z,15.03
2018-03-07T12:21:10.862Z,14.93
2018-03-07T12:23:38.429Z,15.01
2018-03-07T12:26:06.003Z,15.16
2018-03-07T12:28:33.688Z,15.29
2018-03-07T12:31:01.259Z,15.48
2018-03-07T12:33:28.827Z,15.58
2018-03-07T12:35:56.447Z,15.63
2018-03-07T12:38:24.044Z,15.78
2018-03-07T12:40:51.640Z,15.82
2018-03-07T12:43:19.230Z,15.76
2018-03-07T12:45:47.216Z,15.90
2018-03-07T12:48:14.797Z,16.07
2018-03-07T12:50:42.644Z,16.24
2018-03-07T12:53:10.261Z,16.28
2018-03-07T12:55:41.424Z,16.33
2018-03-07T12:58:09.015Z,16.35
2018-03-07T13:00:36.633Z,16.32
2018-03-07T13:03:04.217Z,16.37
2018-03-07T13:05:31.855Z,16.49
2018-03-07T13:07:59.433Z,16.50
2018-03-07T13:10:27.048Z,16.38
2018-03-07T13:12:54.649Z,16.49
2018-03-07T13:15:22.213Z,16.58
2018-03-07T13:17:49.909Z,16.54
2018-03-07T13:20:17.523Z,16.47
2018-03-07T13:22:45.150Z,16.45
2018-03-07T13:25:12.732Z,16.46
2018-03-07T13:27:40.290Z,16.33
2018-03-07T13:30:07.887Z,15.99
2018-03-07T13:32:35.502Z,15.77
2018-03-07T13:35:03.329Z,15.62
2018-03-07T13:37:30.914Z,15.56
2018-03-07T13:39:58.862Z,15.48
2018-03-07T13:42:26.439Z,15.44
2018-03-07T13:44:54.062Z,15.25
2018-03-07T13:47:21.621Z,15.06
2018-03-07T13:49:49.235Z,14.91
2018-03-07T13:52:17.080Z,14.81
2018-03-07T13:54:44.668Z,14.72
2018-03-07T13:57:12.497Z,14.62
2018-03-07T13:59:40.154Z,14.66
2018-03-07T14:02:07.721Z,14.64
2018-03-07T14:04:35.303Z,14.56
2018-03-07T14:07:03.249Z,14.46
2018-03-07T14:09:30.828Z,14.45
2018-03-07T14:11:58.537Z,14.52
2018-03-07T14:14:26.123Z,14.60
2018-03-07T14:16:53.761Z,14.68
2018-03-07T14:19:21.391Z,14.74
2018-03-07T14:21:48.974Z,14.88
2018-03-07T14:24:16.572Z,15.11
2018-03-07T14:26:44.140Z,15.40
2018-03-07T14:29:11.768Z,15.70
2018-03-07T14:31:39.342Z,15.91
2018-03-07T14:34:06.939Z,16.08
2018-03-07T14:36:34.530Z,16.15
2018-03-07T14:39:02.138Z,16.22
2018-03-07T14:41:29.763Z,16.26
2018-03-07T14:43:57.776Z,16.26
2018-03-07T14:46:25.366Z,16.24
2018-03-07T14:48:53.021Z,16.27
2018-03-07T14:51:20.595Z,16.27
2018-03-07T14:53:48.212Z,16.33
2018-03-07T14:56:16.193Z,16.22
2018-03-07T14:58:43.767Z,16.15
2018-03-07T15:01:11.452Z,15.84
2018-03-07T15:03:39.054Z,15.63
2018-03-07T15:06:06.690Z,15.50
2018-03-07T15:08:34.380Z,15.36
2018-03-07T15:11:01.965Z,15.30
2018-03-07T15:13:29.769Z,15.21
2018-03-07T15:15:57.348Z,15.08
2018-03-07T15:18:24.950Z,15.09
2018-03-07T15:20:52.508Z,14.94
2018-03-07T15:23:20.152Z,14.76
2018-03-07T15:25:47.728Z,14.57
2018-03-07T15:28:15.351Z,14.44
2018-03-07T15:30:43.011Z,14.11
2018-03-07T15:33:11.022Z,13.95
2018-03-07T15:35:45.365Z,13.84
2018-03-07T15:38:12.973Z,13.71
2018-03-07T15:40:40.551Z,13.56
2018-03-07T15:43:08.127Z,13.47
2018-03-07T15:45:35.774Z,13.35
2018-03-07T15:48:03.350Z,13.32
2018-03-07T15:50:30.907Z,13.20
2018-03-07T15:52:58.514Z,13.15
2018-03-07T15:55:26.083Z,13.15
2018-03-07T15:57:53.727Z,13.19
2018-03-07T16:00:21.775Z,13.09
2018-03-07T16:02:49.367Z,12.98
2018-03-07T16:05:17.028Z,12.85
2018-03-07T16:07:44.595Z,12.67
2018-03-07T16:10:12.180Z,12.52
2018-03-07T16:12:39.820Z,12.44
2018-03-07T16:15:07.441Z,12.35
2018-03-07T16:17:35.257Z,12.19
2018-03-07T16:20:03.061Z,12.11
2018-03-07T16:22:30.664Z,12.02
2018-03-07T16:24:58.286Z,11.89
2018-03-07T16:27:25.979Z,11.80
2018-03-07T16:29:53.588Z,11.69
2018-03-07T16:32:21.476Z,11.57
2018-03-07T16:34:49.084Z,11.48
2018-03-07T16:37:16.700Z,11.42
2018-03-07T16:39:44.770Z,11.31
2018-03-07T16:42:12.349Z,11.18
2018-03-07T16:44:39.972Z,11.07
2018-03-07T16:47:07.670Z,10.95
2018-03-07T16:49:35.733Z,10.89
2018-03-07T16:52:03.631Z,10.81
2018-03-07T16:54:31.265Z,10.71
2018-03-07T16:56:58.858Z,10.68
2018-03-07T16:59:27.369Z,10.65
2018-03-07T17:01:55.027Z,10.57
2018-03-07T17:04:23.035Z,10.52
2018-03-07T17:06:50.635Z,10.48
2018-03-07T17:09:18.305Z,10.44
2018-03-07T17:11:46.225Z,10.37
2018-03-07T17:14:13.812Z,10.31
2018-03-07T17:16:41.670Z,10.24
2018-03-07T17:19:09.229Z,10.19
2018-03-07T17:21:36.826Z,10.14
2018-03-07T17:24:04.490Z,10.10
2018-03-07T17:26:32.111Z,10.00
2018-03-07T17:28:59.680Z,9.95
2018-03-07T17:31:27.346Z,9.87
2018-03-07T17:33:54.943Z,9.82
2018-03-07T17:36:22.540Z,9.79
2018-03-07T17:38:50.186Z,9.75
2018-03-07T17:41:17.790Z,9.66
2018-03-07T17:43:45.433Z,9.63
2018-03-07T17:46:13.033Z,9.63
2018-03-07T17:48:40.675Z,9.60
2018-03-07T17:51:08.269Z,9.59
2018-03-07T17:53:35.868Z,9.58
2018-03-07T17:56:03.563Z,9.53
2018-03-07T17:58:31.227Z,9.40
2018-03-07T18:00:58.890Z,9.22
2018-03-07T18:03:26.463Z,9.10
2018-03-07T18:05:54.130Z,9.05
2018-03-07T18:08:21.786Z,9.06
2018-03-07T18:10:49.354Z,9.05
2018-03-07T18:13:16.944Z,9.03
2018-03-07T18:15:44.599Z,8.97
2018-03-07T18:18:12.175Z,8.92
2018-03-07T18:20:39.768Z,8.86
2018-03-07T18:23:07.626Z,8.83
2018-03-07T18:25:35.192Z,8.80
2018-03-07T18:28:02.838Z,8.78
2018-03-07T18:30:30.425Z,8.74
2018-03-07T18:32:57.997Z,8.74
2018-03-07T18:35:25.632Z,8.68
2018-03-07T18:37:53.490Z,8.67
2018-03-07T18:40:21.287Z,8.65
2018-03-07T18:42:48.949Z,8.62
2018-03-07T18:45:16.537Z,8.63
2018-03-07T18:47:44.109Z,8.63
2018-03-07T18:50:11.759Z,8.60
2018-03-07T18:52:39.337Z,8.57
2018-03-07T18:55:08.908Z,8.57
2018-03-07T18:57:36.556Z,8.56
2018-03-07T19:00:04.203Z,8.54
2018-03-07T19:02:31.815Z,8.50
2018-03-07T19:05:00.390Z,8.46
2018-03-07T19:07:27.950Z,8.42
2018-03-07T19:09:55.524Z,8.41
2018-03-07T19:12:23.168Z,8.39
2018-03-07T19:14:50.786Z,8.35
2018-03-07T19:17:18.641Z,8.31
2018-03-07T19:19:46.286Z,8.28
2018-03-07T19:22:13.888Z,8.22
2018-03-07T19:24:41.493Z,8.17
2018-03-07T19:27:09.121Z,8.13
2018-03-07T19:29:36.683Z,8.13
2018-03-07T19:32:04.630Z,8.12
2018-03-07T19:34:32.264Z,8.13
2018-03-07T19:36:59.867Z,8.13
2018-03-07T19:39:27.487Z,8.14
2018-03-07T19:41:55.110Z,8.13
2018-03-07T19:44:22.681Z,8.11
2018-03-07T19:46:50.589Z,8.08
2018-03-07T19:49:18.186Z,8.03
2018-03-07T19:51:45.772Z,7.97
2018-03-07T19:54:13.407Z,7.90
2018-03-07T19:56:41.198Z,7.84
2018-03-07T19:59:08.794Z,7.77
2018-03-07T20:01:36.424Z,7.74
2018-03-07T20:04:03.998Z,7.73
2018-03-07T20:06:31.588Z,7.71
2018-03-07T20:08:59.184Z,7.70
2018-03-07T20:11:26.822Z,7.66
2018-03-07T20:13:54.382Z,7.62
2018-03-07T20:16:21.945Z,7.58
2018-03-07T20:18:49.788Z,7.51
2018-03-07T20:21:17.391Z,7.47
2018-03-07T20:23:45.318Z,7.41
2018-03-07T20:26:12.968Z,7.39
2018-03-07T20:28:40.572Z,7.39
2018-03-07T20:31:08.170Z,7.40
2018-03-07T20:33:35.901Z,7.37
2018-03-07T20:36:03.485Z,7.34
2018-03-07T20:38:31.053Z,7.29
2018-03-07T20:40:58.681Z,7.28
2018-03-07T20:43:26.284Z,7.29
2018-03-07T20:45:53.884Z,7.30
2018-03-07T20:48:21.654Z,7.29
2018-03-07T20:50:49.257Z,7.30
2018-03-07T20:53:17.183Z,7.30
2018-03-07T20:55:44.810Z,7.29
2018-03-07T20:58:12.410Z,7.28
2018-03-07T21:00:40.019Z,7.27
2018-03-07T21:03:07.672Z,7.27
2018-03-07T21:05:35.276Z,7.26
2018-03-07T21:08:03.136Z,7.24
2018-03-07T21:10:30.846Z,7.22
2018-03-07T21:12:58.451Z,7.21
2018-03-07T21:15:26.177Z,7.20
2018-03-07T21:17:53.797Z,7.18
2018-03-07T21:20:21.516Z,7.17
2018-03-07T21:22:49.322Z,7.16
2018-03-07T21:25:16.956Z,7.16
2018-03-07T21:27:44.545Z,7.14
2018-03-07T21:30:12.128Z,7.13
2018-03-07T21:32:39.754Z,7.13
2018-03-07T21:35:07.307Z,7.12
2018-03-07T21:37:34.864Z,7.09
2018-03-07T21:40:02.458Z,7.08
2018-03-07T21:42:30.065Z,7.03
2018-03-07T21:44:57.662Z,6.96
2018-03-07T21:47:26.121Z,6.92
2018-03-07T21:49:53.685Z,6.88
2018-03-07T21:52:21.312Z,6.88
2018-03-07T21:54:49.152Z,6.88
2018-03-07T21:57:16.725Z,6.88
2018-03-07T21:59:44.411Z,6.88
2018-03-07T22:02:12.076Z,6.89
2018-03-07T22:04:39.775Z,6.89
2018-03-07T22:07:07.390Z,6.85
2018-03-07T22:09:35.222Z,6.80
2018-03-07T22:12:02.793Z,6.72
2018-03-07T22:14:30.491Z,6.69
2018-03-07T22:16:58.079Z,6.65
2018-03-07T22:19:25.789Z,6.59
2018-03-07T22:21:53.512Z,6.56
2018-03-07T22:24:21.076Z,6.57
2018-03-07T22:26:48.943Z,6.56
2018-03-07T22:29:16.570Z,6.54
2018-03-07T22:31:44.157Z,6.53
2018-03-07T22:34:11.825Z,6.52
2018-03-07T22:36:39.414Z,6.51
2018-03-07T22:39:06.972Z,6.52
2018-03-07T22:41:34.820Z,6.50
2018-03-07T22:44:02.532Z,6.51
2018-03-07T22:46:30.159Z,6.50
2018-03-07T22:48:57.764Z,6.48
2018-03-07T22:51:25.425Z,6.48
2018-03-07T22:53:53.030Z,6.46
2018-03-07T22:56:21.155Z,6.44
2018-03-07T22:58:48.901Z,6.43
2018-03-07T23:01:16.541Z,6.41
2018-03-07T23:03:44.198Z,6.41
2018-03-07T23:06:11.749Z,6.40
2018-03-07T23:08:39.549Z,6.39
2018-03-07T23:11:07.166Z,6.36
2018-03-07T23:13:34.822Z,6.35
2018-03-07T23:16:02.638Z,6.34
2018-03-07T23:18:30.348Z,6.33
2018-03-07T23:20:58.014Z,6.30
2018-03-07T23:23:25.638Z,6.25
2018-03-07T23:25:53.197Z,6.22
2018-03-07T23:28:20.867Z,6.20
2018-03-07T23:30:48.481Z,6.18
2018-03-07T23:33:16.072Z,6.14
2018-03-07T23:35:43.655Z,6.10
2018-03-07T23:38:11.565Z,6.07
2018-03-07T23:40:39.183Z,6.04
2018-03-07T23:43:06.786Z,6.04
2018-03-07T23:45:34.493Z,6.05
2018-03-07T23:48:02.056Z,6.07
2018-03-07T23:50:29.676Z,6.06
2018-03-07T23:52:57.306Z,6.07
2018-03-07T23:55:24.998Z,6.08
2018-03-07T23:57:52.693Z,6.06
